Wetterstation Vordersexau
Wetterdaten: Woche 16.04.18 - 22.04.18 (KW16)
Datum Zeit Temp. A. Feuchte A. Luftdruck Regen Wind Richtung Taupunkt Windchill Windben
16.04.2018 00:00 12,1 C 84 % 1009,7 hPa 0,0 l/m 0,0 km/h O-SO 9,5 C 12,1 C 0,0 km/h
16.04.2018 01:00 11,8 C 83 % 1009,5 hPa 0,0 l/m 0,0 km/h SO 9,0 C 11,8 C 0,0 km/h
16.04.2018 02:00 11,5 C 83 % 1009,7 hPa 0,0 l/m 0,0 km/h SO 8,7 C 11,5 C 0,0 km/h
16.04.2018 03:00 11,3 C 83 % 1010,0 hPa 0,0 l/m 0,0 km/h SO 8,5 C 11,3 C 0,0 km/h
16.04.2018 04:00 11,1 C 83 % 1010,3 hPa 0,0 l/m 0,0 km/h SO 8,3 C 11,1 C 0,0 km/h
16.04.2018 05:00 10,7 C 82 % 1010,6 hPa 0,0 l/m 0,0 km/h O-SO 7,8 C 10,7 C 0,0 km/h
16.04.2018 06:00 9,6 C 82 % 1011,0 hPa 0,0 l/m 0,0 km/h O-SO 6,7 C 9,6 C 0,0 km/h
16.04.2018 07:00 10,9 C 79 % 1011,3 hPa 0,0 l/m 0,0 km/h O-SO 7,4 C 10,9 C 0,0 km/h
16.04.2018 08:00 11,2 C 76 % 1011,7 hPa 0,0 l/m 0,0 km/h SO 7,1 C 11,2 C 0,0 km/h
16.04.2018 09:00 19,0 C 82 % 1012,0 hPa 0,0 l/m 0,0 km/h S-SO 15,9 C 19,0 C 0,0 km/h
16.04.2018 10:00 22,6 C 63 % 1012,1 hPa 0,0 l/m 0,0 km/h W 15,2 C 22,6 C 0,0 km/h
16.04.2018 11:00 23,3 C 53 % 1012,5 hPa 0,5 l/m 0,0 km/h W 13,2 C 23,3 C 0,0 km/h
16.04.2018 12:00 22,8 C 50 % 1012,5 hPa 0,0 l/m 0,0 km/h N-NW 11,8 C 22,8 C 0,0 km/h
16.04.2018 13:00 23,6 C 45 % 1012,6 hPa 0,0 l/m 13,0 km/h W 11,0 C 22,0 C 7,2 km/h
16.04.2018 14:00 25,4 C 42 % 1012,6 hPa 0,0 l/m 0,0 km/h NW 11,5 C 25,4 C 0,0 km/h
16.04.2018 15:00 21,9 C 44 % 1012,7 hPa 0,0 l/m 0,0 km/h W-NW 9,1 C 21,9 C 0,0 km/h
16.04.2018 16:00 21,2 C 45 % 1012,8 hPa 0,0 l/m 0,0 km/h N-NW 8,8 C 21,2 C 0,0 km/h
16.04.2018 17:00 21,9 C 45 % 1013,1 hPa 0,0 l/m 0,0 km/h N-NO 9,4 C 21,9 C 0,0 km/h
16.04.2018 18:00 19,6 C 50 % 1013,5 hPa 0,0 l/m 7,1 km/h N-NO 8,9 C 19,3 C 4,0 km/h
16.04.2018 19:00 16,5 C 61 % 1014,0 hPa 0,0 l/m 0,0 km/h N-NO 9,0 C 16,5 C 0,0 km/h
16.04.2018 20:00 13,6 C 69 % 1015,0 hPa 0,0 l/m 0,0 km/h O-NO 8,0 C 13,6 C 0,0 km/h
16.04.2018 21:00 12,6 C 76 % 1016,4 hPa 0,0 l/m 0,0 km/h SO 8,5 C 12,6 C 0,0 km/h
16.04.2018 22:00 12,4 C 79 % 1017,2 hPa 0,0 l/m 0,0 km/h O-SO 8,9 C 12,4 C 0,0 km/h
16.04.2018 23:00 12,2 C 80 % 1017,8 hPa 0,0 l/m 0,0 km/h O-NO 8,9 C 12,2 C 0,0 km/h
17.04.2018 00:00 10,8 C 82 % 1018,0 hPa 0,0 l/m 0,0 km/h NO 7,9 C 10,8 C 0,0 km/h
17.04.2018 01:00 9,4 C 84 % 1018,5 hPa 0,0 l/m 0,0 km/h NO 6,8 C 9,4 C 0,0 km/h
17.04.2018 02:00 8,6 C 84 % 1018,9 hPa 0,0 l/m 0,0 km/h O-SO 6,1 C 8,6 C 0,0 km/h
17.04.2018 03:00 7,9 C 84 % 1019,3 hPa 0,0 l/m 0,0 km/h O-NO 5,4 C 7,9 C 0,0 km/h
17.04.2018 04:00 7,3 C 84 % 1019,3 hPa 0,0 l/m 0,0 km/h N-NO 4,8 C 7,3 C 0,0 km/h
17.04.2018 05:00 6,9 C 84 % 1019,7 hPa 0,0 l/m 0,0 km/h O-NO 4,4 C 6,9 C 0,0 km/h
17.04.2018 06:00 6,4 C 84 % 1020,4 hPa 0,0 l/m 0,0 km/h NO 3,9 C 6,4 C 0,0 km/h
17.04.2018 07:00 9,3 C 71 % 1021,2 hPa 0,0 l/m 0,0 km/h SO 4,3 C 9,3 C 0,0 km/h
17.04.2018 08:00 12,9 C 74 % 1021,7 hPa 0,0 l/m 0,0 km/h N-NW 8,4 C 12,9 C 0,0 km/h
17.04.2018 09:00 18,3 C 65 % 1021,9 hPa 0,0 l/m 0,0 km/h S-SW 11,6 C 18,3 C 0,0 km/h
17.04.2018 10:00 21,3 C 54 % 1022,5 hPa 0,0 l/m 0,0 km/h SW 11,6 C 21,3 C 0,0 km/h
17.04.2018 11:00 23,6 C 50 % 1022,3 hPa 0,0 l/m 0,0 km/h W-SW 12,6 C 23,6 C 0,0 km/h
17.04.2018 12:00 25,4 C 46 % 1022,2 hPa 0,0 l/m 1,9 km/h W 12,9 C 25,4 C 1,1 km/h
17.04.2018 13:00 25,3 C 45 % 1021,7 hPa 0,0 l/m 0,0 km/h NW 12,5 C 25,3 C 0,0 km/h
17.04.2018 14:00 27,0 C 40 % 1021,5 hPa 0,0 l/m 0,0 km/h W-SW 12,2 C 27,0 C 0,0 km/h
17.04.2018 15:00 29,8 C 34 % 1021,0 hPa 0,0 l/m 25,3 km/h W 12,2 C 28,7 C 14,0 km/h
17.04.2018 16:00 30,4 C 32 % 1021,0 hPa 0,0 l/m 0,0 km/h N-NW 11,8 C 30,4 C 0,0 km/h
17.04.2018 17:00 28,7 C 33 % 1021,2 hPa 0,0 l/m 2,6 km/h N-NO 10,8 C 28,7 C 1,4 km/h
17.04.2018 18:00 25,3 C 39 % 1021,5 hPa 0,0 l/m 0,0 km/h N-NW 10,3 C 25,3 C 0,0 km/h
17.04.2018 19:00 21,0 C 46 % 1022,1 hPa 0,0 l/m 0,0 km/h O-NO 8,9 C 21,0 C 0,0 km/h
17.04.2018 20:00 17,3 C 58 % 1023,2 hPa 0,0 l/m 0,0 km/h O-NO 9,0 C 17,3 C 0,0 km/h
17.04.2018 21:00 15,1 C 65 % 1024,2 hPa 0,0 l/m 0,0 km/h O-NO 8,6 C 15,1 C 0,0 km/h
17.04.2018 22:00 13,6 C 70 % 1024,4 hPa 0,0 l/m 0,0 km/h O 8,2 C 13,6 C 0,0 km/h
17.04.2018 23:00 13,0 C 73 % 1024,6 hPa 0,0 l/m 0,0 km/h O-SO 8,3 C 13,0 C 0,0 km/h
18.04.2018 00:00 12,2 C 74 % 1024,9 hPa 0,0 l/m 0,0 km/h O-SO 7,7 C 12,2 C 0,0 km/h
18.04.2018 01:00 11,8 C 74 % 1025,1 hPa 0,0 l/m 0,0 km/h N-NO 7,3 C 11,8 C 0,0 km/h
18.04.2018 02:00 11,8 C 74 % 1025,3 hPa 0,0 l/m 3,2 km/h O-SO 7,3 C 11,8 C 1,8 km/h
18.04.2018 03:00 10,1 C 76 % 1025,4 hPa 0,0 l/m 0,0 km/h SO 6,1 C 10,1 C 0,0 km/h
18.04.2018 04:00 10,5 C 76 % 1025,7 hPa 0,0 l/m 0,0 km/h NO 6,5 C 10,5 C 0,0 km/h
18.04.2018 05:00 7,9 C 81 % 1025,9 hPa 0,0 l/m 0,0 km/h O-NO 4,8 C 7,9 C 0,0 km/h
18.04.2018 06:00 8,1 C 83 % 1026,1 hPa 0,0 l/m 0,0 km/h NO 5,4 C 8,1 C 0,0 km/h
18.04.2018 07:00 11,3 C 83 % 1026,2 hPa 0,0 l/m 0,0 km/h N 8,5 C 11,3 C 0,0 km/h
18.04.2018 08:00 15,9 C 65 % 1026,5 hPa 0,0 l/m 0,0 km/h W 9,3 C 15,9 C 0,0 km/h
18.04.2018 09:00 21,1 C 60 % 1026,4 hPa 0,0 l/m 0,0 km/h N-NO 13,0 C 21,1 C 0,0 km/h
18.04.2018 10:00 26,8 C 39 % 1026,1 hPa 0,0 l/m 0,0 km/h NO 11,7 C 26,8 C 0,0 km/h
18.04.2018 11:00 28,6 C 33 % 1025,9 hPa 0,0 l/m 11,0 km/h O-NO 10,7 C 28,0 C 6,1 km/h
18.04.2018 12:00 27,9 C 30 % 1025,4 hPa 0,0 l/m 4,5 km/h O-NO 8,7 C 27,9 C 2,5 km/h
18.04.2018 13:00 29,2 C 29 % 1024,9 hPa 0,0 l/m 0,0 km/h O 9,3 C 29,2 C 0,0 km/h
18.04.2018 14:00 29,8 C 25 % 1024,5 hPa 0,0 l/m 13,6 km/h O-NO 7,6 C 29,2 C 7,6 km/h
18.04.2018 15:00 32,1 C 21 % 1024,0 hPa 0,0 l/m 12,3 km/h N-NO 7,0 C 32,0 C 6,8 km/h
18.04.2018 16:00 32,8 C 21 % 1023,8 hPa 0,0 l/m 16,8 km/h NO 7,6 C 32,8 C 9,4 km/h
18.04.2018 17:00 31,0 C 24 % 1023,5 hPa 0,0 l/m 0,0 km/h NO 8,0 C 31,0 C 0,0 km/h
18.04.2018 18:00 26,6 C 27 % 1023,6 hPa 0,0 l/m 0,0 km/h NO 6,1 C 26,6 C 0,0 km/h
18.04.2018 19:00 23,1 C 31 % 1023,6 hPa 0,0 l/m 0,0 km/h O-SO 5,0 C 23,1 C 0,0 km/h
18.04.2018 20:00 20,2 C 36 % 1024,2 hPa 0,0 l/m 0,0 km/h O 4,7 C 20,2 C 0,0 km/h
18.04.2018 21:00 14,3 C 52 % 1024,4 hPa 0,0 l/m 0,0 km/h O-NO 4,6 C 14,3 C 0,0 km/h
18.04.2018 22:00 12,6 C 61 % 1024,4 hPa 0,0 l/m 0,0 km/h SO 5,3 C 12,6 C 0,0 km/h
18.04.2018 23:00 11,0 C 67 % 1024,4 hPa 0,0 l/m 0,0 km/h NO 5,1 C 11,0 C 0,0 km/h
19.04.2018 00:00 11,1 C 68 % 1024,5 hPa 0,0 l/m 0,0 km/h NO 5,4 C 11,1 C 0,0 km/h
19.04.2018 01:00 9,4 C 71 % 1024,2 hPa 0,0 l/m 0,0 km/h O-NO 4,4 C 9,4 C 0,0 km/h
19.04.2018 02:00 8,8 C 77 % 1024,1 hPa 0,0 l/m 0,0 km/h O-NO 5,0 C 8,8 C 0,0 km/h
19.04.2018 03:00 9,1 C 77 % 1023,7 hPa 0,0 l/m 0,0 km/h NO 5,3 C 9,1 C 0,0 km/h
19.04.2018 04:00 8,4 C 78 % 1023,8 hPa 0,0 l/m 0,0 km/h NO 4,8 C 8,4 C 0,0 km/h
19.04.2018 05:00 8,2 C 78 % 1023,7 hPa 0,0 l/m 0,0 km/h O-NO 4,6 C 8,2 C 0,0 km/h
19.04.2018 06:00 7,9 C 77 % 1024,2 hPa 0,0 l/m 0,0 km/h O-NO 4,1 C 7,9 C 0,0 km/h
19.04.2018 07:00 11,2 C 79 % 1024,8 hPa 0,0 l/m 0,0 km/h O-NO 7,7 C 11,2 C 0,0 km/h
19.04.2018 08:00 16,9 C 55 % 1024,9 hPa 0,0 l/m 0,0 km/h SW 7,8 C 16,9 C 0,0 km/h
19.04.2018 09:00 28,9 C 39 % 1024,9 hPa 0,0 l/m 0,0 km/h W-SW 13,5 C 28,9 C 0,0 km/h
19.04.2018 10:00 21,6 C 42 % 1024,8 hPa 0,0 l/m 0,0 km/h W 8,1 C 21,6 C 0,0 km/h
19.04.2018 11:00 21,9 C 46 % 1024,6 hPa 0,0 l/m 0,0 km/h NO 9,7 C 21,9 C 0,0 km/h
19.04.2018 12:00 23,6 C 43 % 1024,1 hPa 0,0 l/m 0,0 km/h W 10,3 C 23,6 C 0,0 km/h
19.04.2018 13:00 24,4 C 38 % 1023,6 hPa 0,0 l/m 0,0 km/h SW 9,2 C 24,4 C 0,0 km/h
19.04.2018 14:00 25,6 C 36 % 1023,0 hPa 0,0 l/m 5,2 km/h N-NW 9,4 C 25,6 C 2,9 km/h
19.04.2018 15:00 26,5 C 34 % 1022,3 hPa 0,0 l/m 0,0 km/h NW 9,3 C 26,5 C 0,0 km/h
19.04.2018 16:00 27,3 C 35 % 1021,4 hPa 0,0 l/m 0,0 km/h N-NW 10,5 C 27,3 C 0,0 km/h
19.04.2018 17:00 27,9 C 34 % 1021,2 hPa 0,0 l/m 0,0 km/h W 10,6 C 27,9 C 0,0 km/h
19.04.2018 18:00 26,6 C 36 % 1021,1 hPa 0,0 l/m 0,0 km/h W 10,3 C 26,6 C 0,0 km/h
19.04.2018 19:00 24,8 C 39 % 1020,9 hPa 0,0 l/m 0,0 km/h W 9,9 C 24,8 C 0,0 km/h
19.04.2018 20:00 20,2 C 53 % 1021,3 hPa 0,0 l/m 0,0 km/h O 10,3 C 20,2 C 0,0 km/h
19.04.2018 21:00 18,2 C 59 % 1021,5 hPa 0,0 l/m 0,0 km/h O 10,1 C 18,2 C 0,0 km/h
19.04.2018 22:00 16,8 C 63 % 1021,5 hPa 0,0 l/m 0,0 km/h O-SO 9,7 C 16,8 C 0,0 km/h
19.04.2018 23:00 16,8 C 61 % 1021,4 hPa 0,0 l/m 0,0 km/h SO 9,2 C 16,8 C 0,0 km/h
20.04.2018 00:00 16,4 C 60 % 1021,4 hPa 0,0 l/m 0,0 km/h SO 8,6 C 16,4 C 0,0 km/h
20.04.2018 01:00 15,5 C 61 % 1021,3 hPa 0,0 l/m 2,6 km/h NO 8,0 C 15,5 C 1,4 km/h
20.04.2018 02:00 14,8 C 61 % 1021,1 hPa 0,0 l/m 0,0 km/h O 7,4 C 14,8 C 0,0 km/h
20.04.2018 03:00 12,9 C 68 % 1021,2 hPa 0,0 l/m 0,0 km/h O-NO 7,1 C 12,9 C 0,0 km/h
20.04.2018 04:00 12,1 C 70 % 1021,0 hPa 0,0 l/m 0,0 km/h O-NO 6,8 C 12,1 C 0,0 km/h
20.04.2018 05:00 10,8 C 73 % 1021,0 hPa 0,0 l/m 0,0 km/h NO 6,2 C 10,8 C 0,0 km/h
20.04.2018 06:00 10,8 C 75 % 1020,9 hPa 0,0 l/m 0,0 km/h NO 6,5 C 10,8 C 0,0 km/h
20.04.2018 07:00 11,1 C 77 % 1021,3 hPa 0,0 l/m 0,0 km/h NO 7,2 C 11,1 C 0,0 km/h
20.04.2018 08:00 17,0 C 63 % 1021,5 hPa 0,0 l/m 0,0 km/h N-NW 9,9 C 17,0 C 0,0 km/h
20.04.2018 09:00 20,3 C 56 % 1021,3 hPa 0,0 l/m 0,0 km/h NW 11,2 C 20,3 C 0,0 km/h
20.04.2018 10:00 20,8 C 53 % 1021,3 hPa 0,0 l/m 0,0 km/h W 10,9 C 20,8 C 0,0 km/h
20.04.2018 11:00 22,7 C 51 % 1021,2 hPa 0,0 l/m 0,0 km/h W 12,0 C 22,7 C 0,0 km/h
20.04.2018 12:00 24,0 C 47 % 1020,7 hPa 0,0 l/m 0,0 km/h W 12,0 C 24,0 C 0,0 km/h
20.04.2018 13:00 25,6 C 41 % 1020,1 hPa 0,0 l/m 0,0 km/h W-SW 11,4 C 25,6 C 0,0 km/h
20.04.2018 14:00 26,9 C 34 % 1019,4 hPa 0,0 l/m 0,0 km/h N-NW 9,7 C 26,9 C 0,0 km/h
20.04.2018 15:00 27,6 C 31 % 1018,9 hPa 0,0 l/m 0,0 km/h W-NW 8,9 C 27,6 C 0,0 km/h
20.04.2018 16:00 27,9 C 30 % 1018,3 hPa 0,0 l/m 0,0 km/h N 8,7 C 27,9 C 0,0 km/h
20.04.2018 17:00 28,5 C 28 % 1017,9 hPa 0,0 l/m 0,0 km/h N 8,2 C 28,5 C 0,0 km/h
20.04.2018 18:00 27,1 C 33 % 1017,8 hPa 0,0 l/m 0,0 km/h N 9,4 C 27,1 C 0,0 km/h
20.04.2018 19:00 25,2 C 37 % 1017,6 hPa 0,0 l/m 0,0 km/h N-NO 9,5 C 25,2 C 0,0 km/h
20.04.2018 20:00 20,6 C 50 % 1018,1 hPa 0,0 l/m 0,0 km/h NO 9,8 C 20,6 C 0,0 km/h
20.04.2018 21:00 18,5 C 54 % 1018,4 hPa 0,0 l/m 0,0 km/h NO 9,0 C 18,5 C 0,0 km/h
20.04.2018 22:00 16,4 C 62 % 1018,3 hPa 0,0 l/m 0,0 km/h NO 9,1 C 16,4 C 0,0 km/h
20.04.2018 23:00 15,6 C 63 % 1018,3 hPa 0,0 l/m 0,0 km/h NO 8,6 C 15,6 C 0,0 km/h
21.04.2018 00:00 14,9 C 65 % 1018,3 hPa 0,0 l/m 0,0 km/h NO 8,4 C 14,9 C 0,0 km/h
21.04.2018 01:00 13,9 C 68 % 1017,9 hPa 0,0 l/m 0,0 km/h NO 8,1 C 13,9 C 0,0 km/h
21.04.2018 02:00 13,8 C 67 % 1017,5 hPa 0,0 l/m 0,0 km/h O-NO 7,8 C 13,8 C 0,0 km/h
21.04.2018 03:00 12,3 C 70 % 1017,7 hPa 0,0 l/m 0,0 km/h O-NO 7,0 C 12,3 C 0,0 km/h
21.04.2018 04:00 11,3 C 74 % 1017,6 hPa 0,0 l/m 0,0 km/h O-NO 6,8 C 11,3 C 0,0 km/h
21.04.2018 05:00 10,8 C 76 % 1017,2 hPa 0,0 l/m 0,0 km/h O-NO 6,7 C 10,8 C 0,0 km/h
21.04.2018 06:00 10,9 C 77 % 1017,6 hPa 0,0 l/m 0,0 km/h O-NO 7,0 C 10,9 C 0,0 km/h
21.04.2018 07:00 11,9 C 78 % 1018,2 hPa 0,0 l/m 0,0 km/h O-SO 8,2 C 11,9 C 0,0 km/h
21.04.2018 08:00 16,9 C 68 % 1018,2 hPa 0,0 l/m 0,0 km/h O-SO 11,0 C 16,9 C 0,0 km/h
21.04.2018 09:00 22,5 C 56 % 1018,1 hPa 0,0 l/m 0,0 km/h O-NO 13,3 C 22,5 C 0,0 km/h
21.04.2018 10:00 22,4 C 50 % 1018,2 hPa 0,0 l/m 0,0 km/h SW 11,5 C 22,4 C 0,0 km/h
21.04.2018 11:00 24,3 C 45 % 1017,6 hPa 0,0 l/m 0,0 km/h W-SW 11,6 C 24,3 C 0,0 km/h
21.04.2018 12:00 25,3 C 42 % 1017,0 hPa 0,0 l/m 0,0 km/h W 11,5 C 25,3 C 0,0 km/h
21.04.2018 13:00 26,8 C 39 % 1016,3 hPa 0,0 l/m 0,0 km/h W 11,7 C 26,8 C 0,0 km/h
21.04.2018 14:00 27,6 C 34 % 1015,7 hPa 0,0 l/m 0,0 km/h W-SW 10,3 C 27,6 C 0,0 km/h
21.04.2018 15:00 28,4 C 33 % 1015,1 hPa 0,0 l/m 0,0 km/h NW 10,6 C 28,4 C 0,0 km/h
21.04.2018 16:00 28,9 C 32 % 1014,3 hPa 0,0 l/m 0,0 km/h N-NW 10,5 C 28,9 C 0,0 km/h
21.04.2018 17:00 29,3 C 32 % 1013,9 hPa 0,0 l/m 0,0 km/h N 10,9 C 29,3 C 0,0 km/h
21.04.2018 18:00 28,2 C 34 % 1013,5 hPa 0,0 l/m 0,0 km/h N-NO 10,8 C 28,2 C 0,0 km/h
21.04.2018 19:00 25,6 C 40 % 1013,4 hPa 0,0 l/m 0,0 km/h NO 11,0 C 25,6 C 0,0 km/h
21.04.2018 20:00 21,1 C 52 % 1013,7 hPa 0,0 l/m 0,0 km/h NO 10,9 C 21,1 C 0,0 km/h
21.04.2018 21:00 20,1 C 55 % 1013,9 hPa 0,0 l/m 0,0 km/h O-SO 10,8 C 20,1 C 0,0 km/h
21.04.2018 22:00 17,9 C 61 % 1014,0 hPa 0,0 l/m 0,0 km/h SO 10,3 C 17,9 C 0,0 km/h
21.04.2018 23:00 17,6 C 62 % 1014,0 hPa 0,0 l/m 0,0 km/h NO 10,2 C 17,6 C 0,0 km/h
22.04.2018 00:00 17,0 C 63 % 1014,2 hPa 0,0 l/m 0,0 km/h NO 9,9 C 17,0 C 0,0 km/h
22.04.2018 01:00 14,8 C 69 % 1013,8 hPa 0,0 l/m 0,0 km/h NO 9,2 C 14,8 C 0,0 km/h
22.04.2018 02:00 13,6 C 73 % 1013,6 hPa 0,0 l/m 0,0 km/h NO 8,9 C 13,6 C 0,0 km/h
22.04.2018 03:00 13,1 C 74 % 1013,5 hPa 0,0 l/m 0,0 km/h O 8,6 C 13,1 C 0,0 km/h
22.04.2018 04:00 12,2 C 77 % 1013,4 hPa 0,0 l/m 0,0 km/h SO 8,3 C 12,2 C 0,0 km/h
22.04.2018 05:00 12,3 C 78 % 1013,2 hPa 0,0 l/m 0,0 km/h N-NW 8,6 C 12,3 C 0,0 km/h
22.04.2018 06:00 12,7 C 77 % 1013,1 hPa 0,0 l/m 0,0 km/h N-NO 8,8 C 12,7 C 0,0 km/h
22.04.2018 07:00 13,8 C 78 % 1013,5 hPa 0,0 l/m 0,0 km/h N-NO 10,0 C 13,8 C 0,0 km/h
22.04.2018 08:00 17,8 C 68 % 1013,9 hPa 0,0 l/m 0,0 km/h SO 11,8 C 17,8 C 0,0 km/h
22.04.2018 09:00 21,6 C 59 % 1013,7 hPa 0,0 l/m 0,0 km/h W-SW 13,2 C 21,6 C 0,0 km/h
22.04.2018 10:00 23,5 C 51 % 1013,5 hPa 0,0 l/m 0,0 km/h W-SW 12,8 C 23,5 C 0,0 km/h
22.04.2018 11:00 25,4 C 39 % 1013,1 hPa 0,0 l/m 0,0 km/h W-SW 10,4 C 25,4 C 0,0 km/h
22.04.2018 12:00 26,2 C 38 % 1012,6 hPa 0,0 l/m 0,0 km/h W 10,7 C 26,2 C 0,0 km/h
22.04.2018 13:00 27,3 C 36 % 1012,4 hPa 0,0 l/m 0,0 km/h S 10,9 C 27,3 C 0,0 km/h
22.04.2018 14:00 28,1 C 33 % 1011,7 hPa 0,0 l/m 0,0 km/h S-SW 10,3 C 28,1 C 0,0 km/h
22.04.2018 15:00 28,7 C 26 % 1011,0 hPa 0,0 l/m 11,7 km/h S-SW 7,3 C 28,1 C 6,5 km/h
22.04.2018 16:00 28,7 C 26 % 1010,5 hPa 0,0 l/m 4,5 km/h SW 7,3 C 28,7 C 2,5 km/h
22.04.2018 17:00 28,8 C 27 % 1010,1 hPa 0,0 l/m 4,5 km/h SW 7,9 C 28,8 C 2,5 km/h
22.04.2018 18:00 26,1 C 34 % 1010,2 hPa 0,0 l/m 0,0 km/h W-SW 9,0 C 26,1 C 0,0 km/h
22.04.2018 19:00 24,8 C 38 % 1010,6 hPa 0,0 l/m 0,0 km/h NO 9,5 C 24,8 C 0,0 km/h
22.04.2018 20:00 21,6 C 49 % 1011,4 hPa 0,0 l/m 0,0 km/h NO 10,4 C 21,6 C 0,0 km/h
22.04.2018 21:00 19,1 C 56 % 1012,1 hPa 0,0 l/m 0,0 km/h NO 10,1 C 19,1 C 0,0 km/h
22.04.2018 22:00 17,9 C 61 % 1012,5 hPa 0,0 l/m 0,0 km/h NO 10,3 C 17,9 C 0,0 km/h
22.04.2018 23:00 16,7 C 64 % 1012,7 hPa 0,0 l/m 0,0 km/h NO 9,9 C 16,7 C 0,0 km/h
Min-Datum _ 17.04.18 18.04.18 16.04.18 - 16.04.18 - 17.04.18 17.04.18 16.04.18
_ Min-Zeit 06:53 15:53 01:53 - 00:53 - 06:53 06:53 00:53
Minimum _ 6,4 C 21 % 1009,5 hPa - 0,0 km/h - 3,9 C 6,4 C 0,0 km/h
Max-Datum _ 18.04.18 16.04.18 18.04.18 16.04.18 17.04.18 - 16.04.18 18.04.18 17.04.18
_ Max-Zeit 16:53 00:53 08:53 11:53 15:53 - 09:53 16:53 15:53
Maximum _ 32,8 C 84 % 1026,5 hPa 0,5 l/m 25,3 km/h
W
- 15,9 C 32,8 C 14,0 km/h
W
Durchschnitt _ 18,8 C 57 % 1018,7 hPa #0,5 l/m 0,8 km/h NO 9,0 C 18,8 C 0,5 km/h
www.sexauwetter.de